sensor_id;sensor_type;location;lat;lon;timestamp;temperature;humidity
25753;DHT22;13600;50.816;4.416;2022-11-04T00:01:47;11.30;99.90
25753;DHT22;13600;50.816;4.416;2022-11-04T00:04:14;11.30;99.90
25753;DHT22;13600;50.816;4.416;2022-11-04T00:06:40;11.30;99.90
25753;DHT22;13600;50.816;4.416;2022-11-04T00:09:08;11.20;99.90
25753;DHT22;13600;50.816;4.416;2022-11-04T00:11:35;11.30;99.90
25753;DHT22;13600;50.816;4.416;2022-11-04T00:14:19;11.30;99.90
25753;DHT22;13600;50.816;4.416;2022-11-04T00:16:45;11.20;99.90
25753;DHT22;13600;50.816;4.416;2022-11-04T00:19:29;11.20;99.90
25753;DHT22;13600;50.816;4.416;2022-11-04T00:22:15;11.30;99.90
25753;DHT22;13600;50.816;4.416;2022-11-04T00:25:00;11.20;99.90
25753;DHT22;13600;50.816;4.416;2022-11-04T00:27:44;11.30;99.90
25753;DHT22;13600;50.816;4.416;2022-11-04T00:30:28;11.20;99.90
25753;DHT22;13600;50.816;4.416;2022-11-04T00:32:54;11.10;99.90
25753;DHT22;13600;50.816;4.416;2022-11-04T00:35:38;11.10;99.90
25753;DHT22;13600;50.816;4.416;2022-11-04T00:38:03;11.20;99.90
25753;DHT22;13600;50.816;4.416;2022-11-04T00:40:29;11.20;99.90
25753;DHT22;13600;50.816;4.416;2022-11-04T00:42:54;11.00;99.90
25753;DHT22;13600;50.816;4.416;2022-11-04T00:45:20;11.00;99.90
25753;DHT22;13600;50.816;4.416;2022-11-04T00:47:45;11.10;99.90
25753;DHT22;13600;50.816;4.416;2022-11-04T00:50:11;11.20;99.90
25753;DHT22;13600;50.816;4.416;2022-11-04T00:52:37;11.30;99.90
25753;DHT22;13600;50.816;4.416;2022-11-04T00:55:03;11.20;99.90
25753;DHT22;13600;50.816;4.416;2022-11-04T00:57:29;11.30;99.90
25753;DHT22;13600;50.816;4.416;2022-11-04T00:59:54;11.30;99.90
25753;DHT22;13600;50.816;4.416;2022-11-04T01:02:20;11.20;99.90
25753;DHT22;13600;50.816;4.416;2022-11-04T01:04:46;11.10;99.90
25753;DHT22;13600;50.816;4.416;2022-11-04T01:07:12;11.10;99.90
25753;DHT22;13600;50.816;4.416;2022-11-04T01:09:38;11.20;99.90
25753;DHT22;13600;50.816;4.416;2022-11-04T01:12:03;11.30;99.90
25753;DHT22;13600;50.816;4.416;2022-11-04T01:14:29;11.20;99.90
25753;DHT22;13600;50.816;4.416;2022-11-04T01:16:55;11.20;99.90
25753;DHT22;13600;50.816;4.416;2022-11-04T01:19:21;11.30;99.90
25753;DHT22;13600;50.816;4.416;2022-11-04T01:21:50;11.40;99.90
25753;DHT22;13600;50.816;4.416;2022-11-04T01:24:16;11.40;99.90
25753;DHT22;13600;50.816;4.416;2022-11-04T01:26:41;11.20;99.90
25753;DHT22;13600;50.816;4.416;2022-11-04T01:29:07;11.10;99.90
25753;DHT22;13600;50.816;4.416;2022-11-04T01:31:32;10.90;99.90
25753;DHT22;13600;50.816;4.416;2022-11-04T01:33:58;10.90;99.90
25753;DHT22;13600;50.816;4.416;2022-11-04T01:36:25;11.10;99.90
25753;DHT22;13600;50.816;4.416;2022-11-04T01:38:51;11.00;99.90
25753;DHT22;13600;50.816;4.416;2022-11-04T01:41:21;10.90;99.90
25753;DHT22;13600;50.816;4.416;2022-11-04T01:43:56;11.00;99.90
25753;DHT22;13600;50.816;4.416;2022-11-04T01:51:48;10.90;99.90
25753;DHT22;13600;50.816;4.416;2022-11-04T01:54:16;10.90;99.90
25753;DHT22;13600;50.816;4.416;2022-11-04T01:56:43;10.80;99.90
25753;DHT22;13600;50.816;4.416;2022-11-04T01:59:16;10.70;99.90
25753;DHT22;13600;50.816;4.416;2022-11-04T02:01:44;10.70;99.90
25753;DHT22;13600;50.816;4.416;2022-11-04T02:04:10;10.70;99.90
25753;DHT22;13600;50.816;4.416;2022-11-04T02:07:07;10.60;99.90
25753;DHT22;13600;50.816;4.416;2022-11-04T02:09:35;10.70;99.90
25753;DHT22;13600;50.816;4.416;2022-11-04T02:12:01;10.60;99.90
25753;DHT22;13600;50.816;4.416;2022-11-04T02:14:46;10.60;99.90
25753;DHT22;13600;50.816;4.416;2022-11-04T02:25:38;10.40;99.90
25753;DHT22;13600;50.816;4.416;2022-11-04T02:31:23;10.30;99.90
25753;DHT22;13600;50.816;4.416;2022-11-04T02:37:07;10.40;99.90
25753;DHT22;13600;50.816;4.416;2022-11-04T02:39:47;10.40;99.90
25753;DHT22;13600;50.816;4.416;2022-11-04T02:47:43;10.70;99.90
25753;DHT22;13600;50.816;4.416;2022-11-04T02:50:13;10.80;99.90
25753;DHT22;13600;50.816;4.416;2022-11-04T02:53:28;11.00;99.90
25753;DHT22;13600;50.816;4.416;2022-11-04T02:55:56;11.10;99.90
25753;DHT22;13600;50.816;4.416;2022-11-04T02:58:28;11.20;99.90
25753;DHT22;13600;50.816;4.416;2022-11-04T03:00:56;11.30;99.90
25753;DHT22;13600;50.816;4.416;2022-11-04T03:03:25;11.20;99.90
25753;DHT22;13600;50.816;4.416;2022-11-04T03:05:53;11.10;99.90
25753;DHT22;13600;50.816;4.416;2022-11-04T03:08:30;11.00;99.90
25753;DHT22;13600;50.816;4.416;2022-11-04T03:11:05;10.90;99.90
25753;DHT22;13600;50.816;4.416;2022-11-04T03:16:03;11.00;99.90
25753;DHT22;13600;50.816;4.416;2022-11-04T03:20:57;11.10;99.90
25753;DHT22;13600;50.816;4.416;2022-11-04T03:23:25;11.10;99.90
25753;DHT22;13600;50.816;4.416;2022-11-04T03:25:54;11.00;99.90
25753;DHT22;13600;50.816;4.416;2022-11-04T03:28:43;10.90;99.90
25753;DHT22;13600;50.816;4.416;2022-11-04T03:31:25;10.90;99.90
25753;DHT22;13600;50.816;4.416;2022-11-04T03:33:54;10.90;99.90
25753;DHT22;13600;50.816;4.416;2022-11-04T03:36:21;11.00;99.90
25753;DHT22;13600;50.816;4.416;2022-11-04T03:38:48;11.00;99.90
25753;DHT22;13600;50.816;4.416;2022-11-04T03:41:18;11.10;99.90
25753;DHT22;13600;50.816;4.416;2022-11-04T03:43:48;11.20;99.90
25753;DHT22;13600;50.816;4.416;2022-11-04T03:46:13;11.20;99.90
25753;DHT22;13600;50.816;4.416;2022-11-04T03:48:40;11.30;99.90
25753;DHT22;13600;50.816;4.416;2022-11-04T03:51:08;11.50;99.90
25753;DHT22;13600;50.816;4.416;2022-11-04T03:53:33;11.50;99.90
25753;DHT22;13600;50.816;4.416;2022-11-04T03:59:06;11.80;99.90
25753;DHT22;13600;50.816;4.416;2022-11-04T04:04:31;11.70;99.90
25753;DHT22;13600;50.816;4.416;2022-11-04T04:07:19;11.80;99.90
25753;DHT22;13600;50.816;4.416;2022-11-04T04:10:06;11.80;99.90
25753;DHT22;13600;50.816;4.416;2022-11-04T04:12:58;11.80;99.90
25753;DHT22;13600;50.816;4.416;2022-11-04T04:15:37;11.80;99.90
25753;DHT22;13600;50.816;4.416;2022-11-04T04:18:09;11.60;99.90
25753;DHT22;13600;50.816;4.416;2022-11-04T04:20:37;11.70;99.90
25753;DHT22;13600;50.816;4.416;2022-11-04T04:23:07;11.70;99.90
25753;DHT22;13600;50.816;4.416;2022-11-04T04:25:55;11.70;99.90
25753;DHT22;13600;50.816;4.416;2022-11-04T04:28:42;11.80;99.90
25753;DHT22;13600;50.816;4.416;2022-11-04T04:31:10;11.90;99.90
25753;DHT22;13600;50.816;4.416;2022-11-04T04:33:37;11.90;99.90
25753;DHT22;13600;50.816;4.416;2022-11-04T04:36:04;12.00;99.90
25753;DHT22;13600;50.816;4.416;2022-11-04T04:38:31;12.00;99.90
25753;DHT22;13600;50.816;4.416;2022-11-04T04:41:30;12.00;99.90
25753;DHT22;13600;50.816;4.416;2022-11-04T04:44:26;12.00;99.90
25753;DHT22;13600;50.816;4.416;2022-11-04T04:47:14;12.00;99.90
25753;DHT22;13600;50.816;4.416;2022-11-04T04:49:55;12.10;99.90
25753;DHT22;13600;50.816;4.416;2022-11-04T04:52:22;12.00;99.90
25753;DHT22;13600;50.816;4.416;2022-11-04T04:54:48;12.00;99.90
25753;DHT22;13600;50.816;4.416;2022-11-04T04:57:14;11.90;99.90
25753;DHT22;13600;50.816;4.416;2022-11-04T04:59:39;12.00;99.90
25753;DHT22;13600;50.816;4.416;2022-11-04T05:02:05;12.00;99.90
25753;DHT22;13600;50.816;4.416;2022-11-04T05:04:31;11.90;99.90
25753;DHT22;13600;50.816;4.416;2022-11-04T05:06:56;12.00;99.90
25753;DHT22;13600;50.816;4.416;2022-11-04T05:09:22;12.10;99.90
25753;DHT22;13600;50.816;4.416;2022-11-04T05:11:48;12.10;99.90
25753;DHT22;13600;50.816;4.416;2022-11-04T05:14:13;12.10;99.90
25753;DHT22;13600;50.816;4.416;2022-11-04T05:16:39;12.10;99.90
25753;DHT22;13600;50.816;4.416;2022-11-04T05:19:05;12.00;99.90
25753;DHT22;13600;50.816;4.416;2022-11-04T05:21:30;12.00;99.90
25753;DHT22;13600;50.816;4.416;2022-11-04T05:23:56;12.00;99.90
25753;DHT22;13600;50.816;4.416;2022-11-04T05:26:21;12.10;99.90
25753;DHT22;13600;50.816;4.416;2022-11-04T05:28:47;12.10;99.90
25753;DHT22;13600;50.816;4.416;2022-11-04T05:31:12;12.10;99.90
25753;DHT22;13600;50.816;4.416;2022-11-04T05:33:38;12.00;99.90
25753;DHT22;13600;50.816;4.416;2022-11-04T05:38:33;12.10;99.90
25753;DHT22;13600;50.816;4.416;2022-11-04T05:40:58;12.20;99.90
25753;DHT22;13600;50.816;4.416;2022-11-04T05:43:24;12.20;99.90
25753;DHT22;13600;50.816;4.416;2022-11-04T05:45:49;12.20;99.90
25753;DHT22;13600;50.816;4.416;2022-11-04T05:48:15;12.20;99.90
25753;DHT22;13600;50.816;4.416;2022-11-04T05:50:41;12.20;99.90
25753;DHT22;13600;50.816;4.416;2022-11-04T05:53:06;12.10;99.90
25753;DHT22;13600;50.816;4.416;2022-11-04T05:55:32;12.20;99.90
25753;DHT22;13600;50.816;4.416;2022-11-04T05:57:57;12.20;99.90
25753;DHT22;13600;50.816;4.416;2022-11-04T06:00:24;12.20;99.90
25753;DHT22;13600;50.816;4.416;2022-11-04T06:02:50;12.20;99.90
25753;DHT22;13600;50.816;4.416;2022-11-04T06:05:16;12.20;99.90
25753;DHT22;13600;50.816;4.416;2022-11-04T06:07:42;12.10;99.90
25753;DHT22;13600;50.816;4.416;2022-11-04T06:10:08;12.20;99.90
25753;DHT22;13600;50.816;4.416;2022-11-04T06:12:33;12.30;99.90
25753;DHT22;13600;50.816;4.416;2022-11-04T06:14:59;12.30;99.90
25753;DHT22;13600;50.816;4.416;2022-11-04T06:17:24;12.30;99.90
25753;DHT22;13600;50.816;4.416;2022-11-04T06:19:50;12.30;99.90
25753;DHT22;13600;50.816;4.416;2022-11-04T06:22:17;12.30;99.90
25753;DHT22;13600;50.816;4.416;2022-11-04T06:24:44;12.30;99.90
25753;DHT22;13600;50.816;4.416;2022-11-04T06:27:10;12.30;99.90
25753;DHT22;13600;50.816;4.416;2022-11-04T06:29:36;12.40;99.90
25753;DHT22;13600;50.816;4.416;2022-11-04T06:32:12;12.20;99.90
25753;DHT22;13600;50.816;4.416;2022-11-04T06:34:38;12.10;99.90
25753;DHT22;13600;50.816;4.416;2022-11-04T06:37:04;12.10;99.90
25753;DHT22;13600;50.816;4.416;2022-11-04T06:39:30;12.40;99.90
25753;DHT22;13600;50.816;4.416;2022-11-04T06:41:56;12.30;99.90
25753;DHT22;13600;50.816;4.416;2022-11-04T06:44:21;12.20;99.90
25753;DHT22;13600;50.816;4.416;2022-11-04T06:46:48;12.20;99.90
25753;DHT22;13600;50.816;4.416;2022-11-04T06:49:19;12.20;99.90
25753;DHT22;13600;50.816;4.416;2022-11-04T06:51:46;12.30;99.90
25753;DHT22;13600;50.816;4.416;2022-11-04T06:54:12;12.30;99.90
25753;DHT22;13600;50.816;4.416;2022-11-04T06:56:39;12.40;99.90
25753;DHT22;13600;50.816;4.416;2022-11-04T06:59:05;12.40;99.90
25753;DHT22;13600;50.816;4.416;2022-11-04T07:01:34;12.50;99.90
25753;DHT22;13600;50.816;4.416;2022-11-04T07:04:00;12.50;99.90
25753;DHT22;13600;50.816;4.416;2022-11-04T07:06:27;12.40;99.90
25753;DHT22;13600;50.816;4.416;2022-11-04T07:08:56;12.30;99.90
25753;DHT22;13600;50.816;4.416;2022-11-04T07:11:25;12.30;99.90
25753;DHT22;13600;50.816;4.416;2022-11-04T07:13:51;12.40;99.90
25753;DHT22;13600;50.816;4.416;2022-11-04T07:16:17;12.60;99.90
25753;DHT22;13600;50.816;4.416;2022-11-04T07:18:44;12.50;99.90
25753;DHT22;13600;50.816;4.416;2022-11-04T07:21:10;12.50;99.90
25753;DHT22;13600;50.816;4.416;2022-11-04T07:23:36;12.60;99.90
25753;DHT22;13600;50.816;4.416;2022-11-04T07:26:05;12.50;99.90
25753;DHT22;13600;50.816;4.416;2022-11-04T07:28:31;12.40;99.90
25753;DHT22;13600;50.816;4.416;2022-11-04T07:30:58;12.50;99.90
25753;DHT22;13600;50.816;4.416;2022-11-04T07:33:25;12.50;99.90
25753;DHT22;13600;50.816;4.416;2022-11-04T07:35:52;12.60;99.90
25753;DHT22;13600;50.816;4.416;2022-11-04T07:38:18;12.70;99.90
25753;DHT22;13600;50.816;4.416;2022-11-04T07:40:44;12.80;99.90
25753;DHT22;13600;50.816;4.416;2022-11-04T07:43:09;12.90;99.90
25753;DHT22;13600;50.816;4.416;2022-11-04T07:45:35;12.90;99.90
25753;DHT22;13600;50.816;4.416;2022-11-04T07:48:01;13.00;99.90
25753;DHT22;13600;50.816;4.416;2022-11-04T07:50:26;12.90;99.90
25753;DHT22;13600;50.816;4.416;2022-11-04T07:52:52;12.70;99.90
25753;DHT22;13600;50.816;4.416;2022-11-04T07:55:18;12.70;99.90
25753;DHT22;13600;50.816;4.416;2022-11-04T07:57:45;12.80;99.90
25753;DHT22;13600;50.816;4.416;2022-11-04T08:00:12;12.90;99.90
25753;DHT22;13600;50.816;4.416;2022-11-04T08:02:40;12.80;99.90
25753;DHT22;13600;50.816;4.416;2022-11-04T08:05:06;13.00;99.90
25753;DHT22;13600;50.816;4.416;2022-11-04T08:07:32;13.00;99.90
25753;DHT22;13600;50.816;4.416;2022-11-04T08:09:58;12.90;99.90
25753;DHT22;13600;50.816;4.416;2022-11-04T08:12:23;13.00;99.90
25753;DHT22;13600;50.816;4.416;2022-11-04T08:14:49;13.00;99.90
25753;DHT22;13600;50.816;4.416;2022-11-04T08:17:15;13.10;99.90
25753;DHT22;13600;50.816;4.416;2022-11-04T08:19:41;13.10;99.90
25753;DHT22;13600;50.816;4.416;2022-11-04T08:22:07;13.20;99.90
25753;DHT22;13600;50.816;4.416;2022-11-04T08:24:33;13.30;99.90
25753;DHT22;13600;50.816;4.416;2022-11-04T08:26:59;13.40;99.90
25753;DHT22;13600;50.816;4.416;2022-11-04T08:29:26;13.40;99.90
25753;DHT22;13600;50.816;4.416;2022-11-04T08:31:52;13.40;99.90
25753;DHT22;13600;50.816;4.416;2022-11-04T08:34:18;13.40;99.90
25753;DHT22;13600;50.816;4.416;2022-11-04T08:36:44;13.30;99.90
25753;DHT22;13600;50.816;4.416;2022-11-04T08:39:10;13.40;99.90
25753;DHT22;13600;50.816;4.416;2022-11-04T08:41:38;13.30;99.90
25753;DHT22;13600;50.816;4.416;2022-11-04T08:44:06;13.40;99.90
25753;DHT22;13600;50.816;4.416;2022-11-04T08:46:35;13.40;99.90
25753;DHT22;13600;50.816;4.416;2022-11-04T08:49:02;13.30;99.90
25753;DHT22;13600;50.816;4.416;2022-11-04T08:51:30;13.20;99.90
25753;DHT22;13600;50.816;4.416;2022-11-04T08:53:56;13.00;99.90
25753;DHT22;13600;50.816;4.416;2022-11-04T08:56:30;13.00;99.90
25753;DHT22;13600;50.816;4.416;2022-11-04T08:58:57;13.00;99.90
25753;DHT22;13600;50.816;4.416;2022-11-04T09:01:33;12.90;99.90
25753;DHT22;13600;50.816;4.416;2022-11-04T09:04:03;12.90;99.90
25753;DHT22;13600;50.816;4.416;2022-11-04T09:06:33;13.00;99.90
25753;DHT22;13600;50.816;4.416;2022-11-04T09:08:58;13.10;99.90
25753;DHT22;13600;50.816;4.416;2022-11-04T09:11:31;13.00;99.90
25753;DHT22;13600;50.816;4.416;2022-11-04T09:13:59;13.00;99.90
25753;DHT22;13600;50.816;4.416;2022-11-04T09:16:26;13.20;99.90
25753;DHT22;13600;50.816;4.416;2022-11-04T09:18:52;13.20;99.90
25753;DHT22;13600;50.816;4.416;2022-11-04T09:21:18;13.30;99.90
25753;DHT22;13600;50.816;4.416;2022-11-04T09:23:44;13.20;99.90
25753;DHT22;13600;50.816;4.416;2022-11-04T09:26:13;13.20;99.90
25753;DHT22;13600;50.816;4.416;2022-11-04T09:28:38;13.30;99.90
25753;DHT22;13600;50.816;4.416;2022-11-04T09:31:14;13.30;99.90
25753;DHT22;13600;50.816;4.416;2022-11-04T09:33:40;13.30;99.90
25753;DHT22;13600;50.816;4.416;2022-11-04T09:36:06;13.20;99.90
25753;DHT22;13600;50.816;4.416;2022-11-04T09:38:33;13.40;99.90
25753;DHT22;13600;50.816;4.416;2022-11-04T09:41:00;13.40;99.90
25753;DHT22;13600;50.816;4.416;2022-11-04T09:43:51;13.50;99.90
25753;DHT22;13600;50.816;4.416;2022-11-04T09:46:19;13.50;99.90
25753;DHT22;13600;50.816;4.416;2022-11-04T09:48:52;13.50;99.90
25753;DHT22;13600;50.816;4.416;2022-11-04T09:51:23;13.50;99.90
25753;DHT22;13600;50.816;4.416;2022-11-04T09:53:50;13.50;99.90
25753;DHT22;13600;50.816;4.416;2022-11-04T09:56:21;13.50;99.90
25753;DHT22;13600;50.816;4.416;2022-11-04T09:58:48;13.50;99.90
25753;DHT22;13600;50.816;4.416;2022-11-04T10:06:46;13.40;99.90
25753;DHT22;13600;50.816;4.416;2022-11-04T10:09:20;13.30;99.90
25753;DHT22;13600;50.816;4.416;2022-11-04T10:20:45;13.60;99.90
25753;DHT22;13600;50.816;4.416;2022-11-04T10:28:18;13.50;99.90
25753;DHT22;13600;50.816;4.416;2022-11-04T10:30:49;13.50;99.90
25753;DHT22;13600;50.816;4.416;2022-11-04T10:33:22;13.50;99.90
25753;DHT22;13600;50.816;4.416;2022-11-04T10:35:50;13.50;99.90
25753;DHT22;13600;50.816;4.416;2022-11-04T10:38:20;13.60;99.90
25753;DHT22;13600;50.816;4.416;2022-11-04T10:40:52;13.50;99.90
25753;DHT22;13600;50.816;4.416;2022-11-04T10:43:32;13.60;99.90
25753;DHT22;13600;50.816;4.416;2022-11-04T10:46:34;13.70;99.90
25753;DHT22;13600;50.816;4.416;2022-11-04T10:52:06;13.90;99.90
25753;DHT22;13600;50.816;4.416;2022-11-04T10:54:42;14.10;99.90
25753;DHT22;13600;50.816;4.416;2022-11-04T10:57:15;13.80;99.90
25753;DHT22;13600;50.816;4.416;2022-11-04T11:00:00;13.80;99.90
25753;DHT22;13600;50.816;4.416;2022-11-04T11:07:43;13.40;99.90
25753;DHT22;13600;50.816;4.416;2022-11-04T11:10:26;13.70;99.90
25753;DHT22;13600;50.816;4.416;2022-11-04T11:13:03;13.80;99.90
25753;DHT22;13600;50.816;4.416;2022-11-04T11:15:34;14.00;99.90
25753;DHT22;13600;50.816;4.416;2022-11-04T11:18:18;14.00;99.90
25753;DHT22;13600;50.816;4.416;2022-11-04T11:21:03;13.90;99.90
25753;DHT22;13600;50.816;4.416;2022-11-04T11:23:35;13.80;99.90
25753;DHT22;13600;50.816;4.416;2022-11-04T11:26:02;13.80;99.90
25753;DHT22;13600;50.816;4.416;2022-11-04T11:28:28;14.00;99.90
25753;DHT22;13600;50.816;4.416;2022-11-04T11:30:59;14.30;99.90
25753;DHT22;13600;50.816;4.416;2022-11-04T11:33:29;14.20;99.90
25753;DHT22;13600;50.816;4.416;2022-11-04T11:36:08;14.40;99.90
25753;DHT22;13600;50.816;4.416;2022-11-04T11:38:38;14.50;99.90
25753;DHT22;13600;50.816;4.416;2022-11-04T11:41:15;14.60;99.90
25753;DHT22;13600;50.816;4.416;2022-11-04T11:43:50;14.60;99.90
25753;DHT22;13600;50.816;4.416;2022-11-04T11:46:28;14.50;99.90
25753;DHT22;13600;50.816;4.416;2022-11-04T11:48:59;14.60;99.90
25753;DHT22;13600;50.816;4.416;2022-11-04T11:51:38;15.00;99.90
25753;DHT22;13600;50.816;4.416;2022-11-04T11:54:30;15.40;99.90
25753;DHT22;13600;50.816;4.416;2022-11-04T11:57:03;15.90;99.90
25753;DHT22;13600;50.816;4.416;2022-11-04T11:59:39;16.10;99.90
25753;DHT22;13600;50.816;4.416;2022-11-04T12:04:57;16.70;99.90
25753;DHT22;13600;50.816;4.416;2022-11-04T12:13:15;17.30;99.90
25753;DHT22;13600;50.816;4.416;2022-11-04T12:15:49;17.30;99.90
25753;DHT22;13600;50.816;4.416;2022-11-04T12:26:22;16.40;99.90
25753;DHT22;13600;50.816;4.416;2022-11-04T12:29:04;16.40;99.90
25753;DHT22;13600;50.816;4.416;2022-11-04T12:31:42;16.30;99.90
25753;DHT22;13600;50.816;4.416;2022-11-04T12:34:41;16.40;99.90
25753;DHT22;13600;50.816;4.416;2022-11-04T12:40:06;16.20;99.90
25753;DHT22;13600;50.816;4.416;2022-11-04T12:48:48;15.50;99.90
25753;DHT22;13600;50.816;4.416;2022-11-04T12:54:28;15.50;99.90
25753;DHT22;13600;50.816;4.416;2022-11-04T12:57:14;15.60;99.90
25753;DHT22;13600;50.816;4.416;2022-11-04T13:00:07;15.70;99.90
25753;DHT22;13600;50.816;4.416;2022-11-04T13:05:52;17.40;99.90
25753;DHT22;13600;50.816;4.416;2022-11-04T13:08:29;17.80;99.90
25753;DHT22;13600;50.816;4.416;2022-11-04T13:13:55;17.40;99.90
25753;DHT22;13600;50.816;4.416;2022-11-04T13:16:22;17.30;99.90
25753;DHT22;13600;50.816;4.416;2022-11-04T13:18:48;17.20;99.90
25753;DHT22;13600;50.816;4.416;2022-11-04T13:21:20;17.00;99.90
25753;DHT22;13600;50.816;4.416;2022-11-04T13:26:43;16.60;99.90
25753;DHT22;13600;50.816;4.416;2022-11-04T13:29:15;16.10;99.90
25753;DHT22;13600;50.816;4.416;2022-11-04T13:31:57;16.00;99.90
25753;DHT22;13600;50.816;4.416;2022-11-04T13:34:51;15.80;99.90
25753;DHT22;13600;50.816;4.416;2022-11-04T13:37:27;15.70;99.90
25753;DHT22;13600;50.816;4.416;2022-11-04T13:40:16;15.40;99.90
25753;DHT22;13600;50.816;4.416;2022-11-04T13:48:36;14.80;99.90
25753;DHT22;13600;50.816;4.416;2022-11-04T13:51:08;14.90;99.90
25753;DHT22;13600;50.816;4.416;2022-11-04T13:53:47;14.90;99.90
25753;DHT22;13600;50.816;4.416;2022-11-04T13:56:36;15.00;99.90
25753;DHT22;13600;50.816;4.416;2022-11-04T13:59:26;14.90;99.90
25753;DHT22;13600;50.816;4.416;2022-11-04T14:04:38;14.80;99.90
25753;DHT22;13600;50.816;4.416;2022-11-04T14:07:07;14.70;99.90
25753;DHT22;13600;50.816;4.416;2022-11-04T14:14:36;14.50;99.90
25753;DHT22;13600;50.816;4.416;2022-11-04T14:17:03;14.50;99.90
25753;DHT22;13600;50.816;4.416;2022-11-04T14:22:48;14.40;99.90
25753;DHT22;13600;50.816;4.416;2022-11-04T14:25:31;14.50;99.90
25753;DHT22;13600;50.816;4.416;2022-11-04T14:36:25;14.60;99.90
25753;DHT22;13600;50.816;4.416;2022-11-04T14:39:01;14.40;99.90
25753;DHT22;13600;50.816;4.416;2022-11-04T14:47:01;13.70;99.90
25753;DHT22;13600;50.816;4.416;2022-11-04T14:55:19;13.60;99.90
25753;DHT22;13600;50.816;4.416;2022-11-04T14:57:47;13.60;99.90
25753;DHT22;13600;50.816;4.416;2022-11-04T15:03:13;13.50;99.90
25753;DHT22;13600;50.816;4.416;2022-11-04T15:05:48;13.40;99.90
25753;DHT22;13600;50.816;4.416;2022-11-04T15:08:31;13.30;99.90
25753;DHT22;13600;50.816;4.416;2022-11-04T15:13:48;13.40;99.90
25753;DHT22;13600;50.816;4.416;2022-11-04T15:16:24;13.30;99.90
25753;DHT22;13600;50.816;4.416;2022-11-04T15:18:52;13.40;99.90
25753;DHT22;13600;50.816;4.416;2022-11-04T15:21:19;13.40;99.90
25753;DHT22;13600;50.816;4.416;2022-11-04T15:23:48;13.40;99.90
25753;DHT22;13600;50.816;4.416;2022-11-04T15:26:34;13.40;99.90
25753;DHT22;13600;50.816;4.416;2022-11-04T15:29:06;13.20;99.90
25753;DHT22;13600;50.816;4.416;2022-11-04T15:31:33;13.20;99.90
25753;DHT22;13600;50.816;4.416;2022-11-04T15:34:01;13.20;99.90
25753;DHT22;13600;50.816;4.416;2022-11-04T15:36:35;13.20;99.90
25753;DHT22;13600;50.816;4.416;2022-11-04T15:41:33;12.80;99.90
25753;DHT22;13600;50.816;4.416;2022-11-04T15:44:43;12.70;99.90
25753;DHT22;13600;50.816;4.416;2022-11-04T15:47:22;12.60;99.90
25753;DHT22;13600;50.816;4.416;2022-11-04T15:49:50;12.60;99.90
25753;DHT22;13600;50.816;4.416;2022-11-04T15:52:23;12.50;99.90
25753;DHT22;13600;50.816;4.416;2022-11-04T15:54:51;12.40;99.90
25753;DHT22;13600;50.816;4.416;2022-11-04T15:57:24;12.40;99.90
25753;DHT22;13600;50.816;4.416;2022-11-04T15:59:56;12.40;99.90
25753;DHT22;13600;50.816;4.416;2022-11-04T16:07:43;12.30;99.90
25753;DHT22;13600;50.816;4.416;2022-11-04T16:10:38;12.30;99.90
25753;DHT22;13600;50.816;4.416;2022-11-04T16:13:23;12.40;99.90
25753;DHT22;13600;50.816;4.416;2022-11-04T16:20:53;12.50;99.90
25753;DHT22;13600;50.816;4.416;2022-11-04T16:23:22;12.50;99.90
25753;DHT22;13600;50.816;4.416;2022-11-04T16:25:57;12.40;99.90
25753;DHT22;13600;50.816;4.416;2022-11-04T16:28:27;12.50;99.90
25753;DHT22;13600;50.816;4.416;2022-11-04T16:31:03;12.40;99.90
25753;DHT22;13600;50.816;4.416;2022-11-04T16:33:28;12.50;99.90
25753;DHT22;13600;50.816;4.416;2022-11-04T16:35:54;12.60;99.90
25753;DHT22;13600;50.816;4.416;2022-11-04T16:38:20;12.70;99.90
25753;DHT22;13600;50.816;4.416;2022-11-04T16:40:47;12.70;99.90
25753;DHT22;13600;50.816;4.416;2022-11-04T16:43:15;12.70;99.90
25753;DHT22;13600;50.816;4.416;2022-11-04T16:45:45;12.70;99.90
25753;DHT22;13600;50.816;4.416;2022-11-04T16:48:16;12.70;99.90
25753;DHT22;13600;50.816;4.416;2022-11-04T16:50:42;12.80;99.90
25753;DHT22;13600;50.816;4.416;2022-11-04T16:53:08;12.80;99.90
25753;DHT22;13600;50.816;4.416;2022-11-04T16:55:34;12.80;99.90
25753;DHT22;13600;50.816;4.416;2022-11-04T16:58:02;12.80;99.90
25753;DHT22;13600;50.816;4.416;2022-11-04T17:00:30;12.70;99.90
25753;DHT22;13600;50.816;4.416;2022-11-04T17:03:00;12.60;99.90
25753;DHT22;13600;50.816;4.416;2022-11-04T17:05:25;12.60;99.90
25753;DHT22;13600;50.816;4.416;2022-11-04T17:07:51;12.50;99.90
25753;DHT22;13600;50.816;4.416;2022-11-04T17:10:23;12.60;99.90
25753;DHT22;13600;50.816;4.416;2022-11-04T17:12:49;12.60;99.90
25753;DHT22;13600;50.816;4.416;2022-11-04T17:15:15;12.70;99.90
25753;DHT22;13600;50.816;4.416;2022-11-04T17:17:42;12.60;99.90
25753;DHT22;13600;50.816;4.416;2022-11-04T17:20:12;12.50;99.90
25753;DHT22;13600;50.816;4.416;2022-11-04T17:22:38;12.50;99.90
25753;DHT22;13600;50.816;4.416;2022-11-04T17:25:17;12.50;99.90
25753;DHT22;13600;50.816;4.416;2022-11-04T17:27:43;12.50;99.90
25753;DHT22;13600;50.816;4.416;2022-11-04T17:30:09;12.60;99.90
25753;DHT22;13600;50.816;4.416;2022-11-04T17:32:37;12.60;99.90
25753;DHT22;13600;50.816;4.416;2022-11-04T17:35:03;12.60;99.90
25753;DHT22;13600;50.816;4.416;2022-11-04T17:37:28;12.60;99.90
25753;DHT22;13600;50.816;4.416;2022-11-04T17:39:54;12.60;99.90
25753;DHT22;13600;50.816;4.416;2022-11-04T17:42:20;12.50;99.90
25753;DHT22;13600;50.816;4.416;2022-11-04T17:45:04;12.50;99.90
25753;DHT22;13600;50.816;4.416;2022-11-04T17:47:34;12.40;99.90
25753;DHT22;13600;50.816;4.416;2022-11-04T17:50:00;12.50;99.90
25753;DHT22;13600;50.816;4.416;2022-11-04T17:52:25;12.30;99.90
25753;DHT22;13600;50.816;4.416;2022-11-04T17:54:51;12.30;99.90
25753;DHT22;13600;50.816;4.416;2022-11-04T17:57:17;12.40;99.90
25753;DHT22;13600;50.816;4.416;2022-11-04T17:59:43;12.30;99.90
25753;DHT22;13600;50.816;4.416;2022-11-04T18:02:09;12.30;99.90
25753;DHT22;13600;50.816;4.416;2022-11-04T18:04:35;12.20;99.90
25753;DHT22;13600;50.816;4.416;2022-11-04T18:07:00;12.30;99.90
25753;DHT22;13600;50.816;4.416;2022-11-04T18:09:26;12.20;99.90
25753;DHT22;13600;50.816;4.416;2022-11-04T18:11:52;12.10;99.90
25753;DHT22;13600;50.816;4.416;2022-11-04T18:14:36;12.00;99.90
25753;DHT22;13600;50.816;4.416;2022-11-04T18:17:01;12.10;99.90
25753;DHT22;13600;50.816;4.416;2022-11-04T18:19:27;11.90;99.90
25753;DHT22;13600;50.816;4.416;2022-11-04T18:21:53;11.90;99.90
25753;DHT22;13600;50.816;4.416;2022-11-04T18:24:19;11.90;99.90
25753;DHT22;13600;50.816;4.416;2022-11-04T18:26:45;11.90;99.90
25753;DHT22;13600;50.816;4.416;2022-11-04T18:29:10;11.80;99.90
25753;DHT22;13600;50.816;4.416;2022-11-04T18:31:38;11.80;99.90